Time;durP1;ratioP1;P1;durP2;ratioP2;P2;SDS_P1;SDS_P2;PMS_P1;PMS_P2;Temp;Humidity;BMP_temperature;BMP_pressure;BME280_temperature;BME280_humidity;BME280_pressure;Samples;Min_cycle;Max_cycle;Signal;HPM_P1;HPM_P2
2024/02/01 00:00:53;;;;;;;;;;;;;;;;;;4974414;28;19928;-73
2024/02/01 00:03:18;;;;;;;;;;;;;;;;;;4988379;28;19989;-71
2024/02/01 00:05:46;;;;;;;;;;;;;;;;;;4987910;28;20090;-72
2024/02/01 00:08:14;;;;;;;;;;;;;;;;;;4988231;28;19921;-73
2024/02/01 00:10:42;;;;;;;;;;;;;;;;;;4987040;28;19925;-74
2024/02/01 00:13:09;;;;;;;;;;;;;;;;;;4985206;28;19922;-71
2024/02/01 00:15:34;;;;;;;;;;;;;;;;;;4978765;28;19929;-71
2024/02/01 00:18:00;;;;;;;;;;;;;;;;;;4989177;28;20478;-72
2024/02/01 00:20:25;;;;;;;;;;;;;;;;;;4985300;28;19927;-72
2024/02/01 00:22:51;;;;;;;;;;;;;;;;;;4969242;28;19921;-70
2024/02/01 00:25:16;;;;;;;;;;;;;;;;;;4984776;28;19921;-72
2024/02/01 00:27:41;;;;;;;;;;;;;;;;;;4980926;28;19936;-71
2024/02/01 00:30:07;;;;;;;;;;;;;;;;;;4985734;28;19921;-71
2024/02/01 00:32:32;;;;;;;;;;;;;;;;;;4997009;28;19917;-72
2024/02/01 00:34:58;;;;;;;;;;;;;;;;;;4988558;28;19922;-72
2024/02/01 00:37:24;;;;;;;;;;;;;;;;;;4981668;28;20421;-70
2024/02/01 00:39:49;;;;;;;;;;;;;;;;;;4986217;28;20453;-70
2024/02/01 00:42:16;;;;;;;;;;;;;;;;;;4966476;28;19918;-71
2024/02/01 00:44:44;;;;;;;;;;;;;;;;;;4986593;28;19972;-71
2024/02/01 00:47:10;;;;;;;;;;;;;;;;;;4990188;28;20041;-71
2024/02/01 00:49:35;;;;;;;;;;;;;;;;;;4986252;28;19922;-69
2024/02/01 00:52:00;;;;;;;;;;;;;;;;;;4987833;28;19922;-72
2024/02/01 00:54:26;;;;;;;;;;;;;;;;;;4984896;28;19923;-70
2024/02/01 00:56:53;;;;;;;;;;;;;;;;;;4988399;28;19957;-70
2024/02/01 00:59:19;;;;;;;;;;;;;;;;;;4987261;28;19925;-73
2024/02/01 01:01:44;;;;;;;;;;;;;;;;;;4982656;28;19921;-73
2024/02/01 01:04:10;;;;;;;;;;;;;;;;;;4989538;28;19924;-71
2024/02/01 01:06:35;;;;;;;;;;;;;;;;;;4982814;28;19917;-74
2024/02/01 01:09:00;;;;;;;;;;;;;;;;;;4988810;28;21842;-71
2024/02/01 01:11:26;;;;;;;;;;;;;;;;;;4988358;28;20407;-74
2024/02/01 01:13:53;;;;;;;;;;;;;;;;;;4987936;28;19928;-73
2024/02/01 01:19:35;;;;;;;;;;;;;;;;;;4986958;28;19928;-73
2024/02/01 01:22:00;;;;;;;;;;;;;;;;;;4980206;28;19922;-70
2024/02/01 01:24:29;;;;;;;;;;;;;;;;;;4973378;28;19921;-71
2024/02/01 01:26:54;;;;;;;;;;;;;;;;;;4983235;28;20356;-72
2024/02/01 01:29:22;;;;;;;;;;;;;;;;;;4985956;28;19944;-71
2024/02/01 01:31:47;;;;;;;;;;;;;;;;;;4998450;28;20257;-73
2024/02/01 01:34:12;;;;;;;;;;;;;;;;;;4986267;28;19917;-71
2024/02/01 01:36:42;;;;;;;;;;;;;;;;;;4987058;28;20388;-72
2024/02/01 01:39:13;;;;;;;;;;;;;;;;;;4963522;28;20555;-72
2024/02/01 01:41:38;;;;;;;;;;;;;;;;;;4982886;28;19922;-73
2024/02/01 01:44:06;;;;;;;;;;;;;;;;;;4987543;28;19929;-72
2024/02/01 01:46:33;;;;;;;;;;;;;;;;;;4987254;28;19960;-72
2024/02/01 01:49:01;;;;;;;;;;;;;;;;;;4969821;28;19979;-72
2024/02/01 01:51:26;;;;;;;;;;;;;;;;;;4987186;28;20473;-73
2024/02/01 01:53:51;;;;;;;;;;;;;;;;;;4987180;28;19917;-72
2024/02/01 01:56:17;;;;;;;;;;;;;;;;;;4986213;28;19922;-71
2024/02/01 01:58:45;;;;;;;;;;;;;;;;;;4985023;28;20410;-71
2024/02/01 02:01:10;;;;;;;;;;;;;;;;;;4966651;28;19921;-72
2024/02/01 02:03:38;;;;;;;;;;;;;;;;;;4988933;28;20341;-73
2024/02/01 02:06:04;;;;;;;;;;;;;;;;;;4991228;28;19918;-71
2024/02/01 02:08:29;;;;;;;;;;;;;;;;;;4991803;28;19960;-72
2024/02/01 02:10:54;;;;;;;;;;;;;;;;;;4974162;28;19928;-72
2024/02/01 02:13:22;;;;;;;;;;;;;;;;;;4989846;28;19933;-72
2024/02/01 02:15:47;;;;;;;;;;;;;;;;;;4984579;28;20360;-72
2024/02/01 02:18:13;;;;;;;;;;;;;;;;;;4991559;28;19929;-72
2024/02/01 02:20:38;;;;;;;;;;;;;;;;;;4984935;28;19937;-72
2024/02/01 02:23:03;;;;;;;;;;;;;;;;;;4990450;28;19918;-72
2024/02/01 02:25:29;;;;;;;;;;;;;;;;;;4989906;28;19925;-71
2024/02/01 02:27:54;;;;;;;;;;;;;;;;;;4972528;28;20290;-71
2024/02/01 02:30:23;;;;;;;;;;;;;;;;;;4958067;28;19933;-72
2024/02/01 02:32:48;;;;;;;;;;;;;;;;;;4969141;28;19918;-73
2024/02/01 02:38:30;;;;;;;;;;;;;;;;;;4983700;28;19925;-72
2024/02/01 02:40:55;;;;;;;;;;;;;;;;;;4949198;28;19917;-72
2024/02/01 02:43:21;;;;;;;;;;;;;;;;;;4970829;28;20308;-72
2024/02/01 02:45:48;;;;;;;;;;;;;;;;;;4976273;28;19956;-71
2024/02/01 02:48:14;;;;;;;;;;;;;;;;;;4970488;28;20537;-73
2024/02/01 02:50:39;;;;;;;;;;;;;;;;;;4984929;28;19917;-72
2024/02/01 02:53:04;;;;;;;;;;;;;;;;;;4986482;28;19921;-73
2024/02/01 02:55:30;;;;;;;;;;;;;;;;;;4979944;28;20020;-71
2024/02/01 02:57:55;;;;;;;;;;;;;;;;;;4971811;28;20180;-72
2024/02/01 03:00:20;;;;;;;;;;;;;;;;;;4953026;28;19940;-71
2024/02/01 03:02:47;;;;;;;;;;;;;;;;;;4990253;28;19971;-72
2024/02/01 03:05:13;;;;;;;;;;;;;;;;;;4989931;28;20621;-71
2024/02/01 03:07:40;;;;;;;;;;;;;;;;;;4951757;28;19952;-73
2024/02/01 03:10:08;;;;;;;;;;;;;;;;;;4988963;28;19998;-72
2024/02/01 03:12:36;;;;;;;;;;;;;;;;;;4972294;28;19931;-71
2024/02/01 03:15:01;;;;;;;;;;;;;;;;;;4988587;28;20427;-72
2024/02/01 03:20:44;;;;;;;;;;;;;;;;;;4977248;28;19988;-73
2024/02/01 03:23:10;;;;;;;;;;;;;;;;;;4980490;28;19921;-72
2024/02/01 03:25:38;;;;;;;;;;;;;;;;;;4967852;28;20442;-72
2024/02/01 03:28:04;;;;;;;;;;;;;;;;;;4981151;28;19948;-72
2024/02/01 03:30:32;;;;;;;;;;;;;;;;;;4988987;28;19924;-72
2024/02/01 03:33:01;;;;;;;;;;;;;;;;;;4988287;28;19922;-73
2024/02/01 03:35:26;;;;;;;;;;;;;;;;;;4974279;28;19921;-72
2024/02/01 03:37:51;;;;;;;;;;;;;;;;;;4986049;28;20383;-73
2024/02/01 03:40:18;;;;;;;;;;;;;;;;;;4966124;28;19944;-72
2024/02/01 03:42:43;;;;;;;;;;;;;;;;;;4964852;28;19922;-72
2024/02/01 03:45:09;;;;;;;;;;;;;;;;;;4968704;28;19924;-72
2024/02/01 03:47:36;;;;;;;;;;;;;;;;;;4971172;28;21112;-72
2024/02/01 03:50:01;;;;;;;;;;;;;;;;;;4967676;28;20392;-73
2024/02/01 03:52:27;;;;;;;;;;;;;;;;;;4960391;28;20710;-73
2024/02/01 03:54:54;;;;;;;;;;;;;;;;;;4948534;28;19918;-73
2024/02/01 03:57:19;;;;;;;;;;;;;;;;;;4950882;28;19933;-75
2024/02/01 03:59:45;;;;;;;;;;;;;;;;;;4979858;28;20298;-73
2024/02/01 04:02:14;;;;;;;;;;;;;;;;;;4961095;28;19942;-73
2024/02/01 04:04:45;;;;;;;;;;;;;;;;;;4971409;28;19918;-73
2024/02/01 04:07:10;;;;;;;;;;;;;;;;;;4983716;28;19921;-74
2024/02/01 04:15:44;;;;;;;;;;;;;;;;;;4981386;28;20411;-74
2024/02/01 04:18:09;;;;;;;;;;;;;;;;;;4971391;28;19944;-74
2024/02/01 04:20:39;;;;;;;;;;;;;;;;;;4967174;28;19967;-74
2024/02/01 04:23:04;;;;;;;;;;;;;;;;;;4948577;28;20291;-73
2024/02/01 04:25:29;;;;;;;;;;;;;;;;;;4981768;28;19922;-74
2024/02/01 04:27:57;;;;;;;;;;;;;;;;;;4969451;28;19928;-74
2024/02/01 04:30:24;;;;;;;;;;;;;;;;;;4982614;28;19922;-77
2024/02/01 04:32:49;;;;;;;;;;;;;;;;;;4980441;28;19940;-74
2024/02/01 04:35:14;;;;;;;;;;;;;;;;;;4947051;28;20382;-75
2024/02/01 04:37:42;;;;;;;;;;;;;;;;;;4982495;28;20165;-75
2024/02/01 04:40:08;;;;;;;;;;;;;;;;;;4970594;28;19917;-73
2024/02/01 04:42:35;;;;;;;;;;;;;;;;;;4983039;28;19936;-74
2024/02/01 04:45:04;;;;;;;;;;;;;;;;;;4968621;28;20257;-74
2024/02/01 04:47:29;;;;;;;;;;;;;;;;;;4979419;28;19917;-73
2024/02/01 04:49:54;;;;;;;;;;;;;;;;;;4968564;28;19933;-74
2024/02/01 04:52:20;;;;;;;;;;;;;;;;;;4982344;28;20074;-75
2024/02/01 04:54:45;;;;;;;;;;;;;;;;;;4969557;28;19928;-75
2024/02/01 04:57:16;;;;;;;;;;;;;;;;;;4988947;28;20004;-75
2024/02/01 04:59:42;;;;;;;;;;;;;;;;;;4967207;28;19924;-75
2024/02/01 05:02:09;;;;;;;;;;;;;;;;;;4970363;28;19921;-73
2024/02/01 05:04:35;;;;;;;;;;;;;;;;;;5000254;28;19917;-73
2024/02/01 05:07:00;;;;;;;;;;;;;;;;;;4972936;28;19929;-72
2024/02/01 05:09:32;;;;;;;;;;;;;;;;;;4959772;28;19925;-73
2024/02/01 05:11:57;;;;;;;;;;;;;;;;;;4949185;28;20290;-73
2024/02/01 05:14:25;;;;;;;;;;;;;;;;;;4948934;28;20372;-73
2024/02/01 05:16:51;;;;;;;;;;;;;;;;;;4982908;28;19922;-73
2024/02/01 05:19:17;;;;;;;;;;;;;;;;;;4984069;28;19917;-73
2024/02/01 05:21:42;;;;;;;;;;;;;;;;;;4971950;28;19918;-72
2024/02/01 05:24:13;;;;;;;;;;;;;;;;;;4941437;28;19985;-74
2024/02/01 05:26:38;;;;;;;;;;;;;;;;;;4983757;28;19921;-74
2024/02/01 05:29:04;;;;;;;;;;;;;;;;;;4972824;28;19924;-74
2024/02/01 05:31:29;;;;;;;;;;;;;;;;;;4964770;28;19921;-73
2024/02/01 05:33:55;;;;;;;;;;;;;;;;;;4997303;28;19918;-74
2024/02/01 05:36:23;;;;;;;;;;;;;;;;;;4977316;28;20080;-74
2024/02/01 05:38:48;;;;;;;;;;;;;;;;;;4966963;28;20378;-74
2024/02/01 05:41:13;;;;;;;;;;;;;;;;;;4965799;28;19921;-74
2024/02/01 05:43:42;;;;;;;;;;;;;;;;;;4983565;28;20048;-73
2024/02/01 05:49:24;;;;;;;;;;;;;;;;;;4978524;28;19979;-74
2024/02/01 05:51:52;;;;;;;;;;;;;;;;;;4973241;28;19929;-73
2024/02/01 05:54:20;;;;;;;;;;;;;;;;;;4965097;28;19964;-73
2024/02/01 05:56:45;;;;;;;;;;;;;;;;;;4976452;28;20032;-74
2024/02/01 05:59:12;;;;;;;;;;;;;;;;;;5001150;28;19917;-74
2024/02/01 06:01:37;;;;;;;;;;;;;;;;;;4979902;28;19937;-73
2024/02/01 06:04:02;;;;;;;;;;;;;;;;;;4958752;28;19918;-74
2024/02/01 06:06:30;;;;;;;;;;;;;;;;;;4976665;28;19922;-75
2024/02/01 06:09:00;;;;;;;;;;;;;;;;;;4981765;28;19932;-75
2024/02/01 06:11:25;;;;;;;;;;;;;;;;;;4959612;28;19921;-74
2024/02/01 06:13:50;;;;;;;;;;;;;;;;;;4987307;28;20391;-75
2024/02/01 06:16:16;;;;;;;;;;;;;;;;;;4976564;28;20317;-74
2024/02/01 06:18:44;;;;;;;;;;;;;;;;;;4963439;28;19917;-74
2024/02/01 06:21:12;;;;;;;;;;;;;;;;;;4967445;28;19922;-76
2024/02/01 06:23:39;;;;;;;;;;;;;;;;;;4989942;28;19922;-75
2024/02/01 06:26:05;;;;;;;;;;;;;;;;;;4971448;28;19997;-74
2024/02/01 06:28:30;;;;;;;;;;;;;;;;;;4992088;28;19937;-74
2024/02/01 06:30:55;;;;;;;;;;;;;;;;;;4985804;28;19924;-73
2024/02/01 06:33:28;;;;;;;;;;;;;;;;;;4988508;28;19996;-73
2024/02/01 06:35:54;;;;;;;;;;;;;;;;;;4985676;28;19929;-73
2024/02/01 06:38:25;;;;;;;;;;;;;;;;;;4970232;28;19917;-74
2024/02/01 06:46:38;;;;;;;;;;;;;;;;;;4988648;28;19925;-73
2024/02/01 06:49:18;;;;;;;;;;;;;;;;;;4986055;28;20967;-73
2024/02/01 06:51:43;;;;;;;;;;;;;;;;;;4962565;28;19917;-72
2024/02/01 06:54:28;;;;;;;;;;;;;;;;;;4990414;28;19917;-73
2024/02/01 06:57:02;;;;;;;;;;;;;;;;;;4980363;28;20040;-72
2024/02/01 06:59:33;;;;;;;;;;;;;;;;;;4985560;28;20449;-72
2024/02/01 07:02:24;;;;;;;;;;;;;;;;;;4978859;28;20645;-73
2024/02/01 07:04:51;;;;;;;;;;;;;;;;;;4992779;28;19922;-74
2024/02/01 07:07:26;;;;;;;;;;;;;;;;;;4989220;28;20285;-74
2024/02/01 07:09:57;;;;;;;;;;;;;;;;;;4978547;28;20686;-72
2024/02/01 07:12:40;;;;;;;;;;;;;;;;;;4990544;28;19925;-73
2024/02/01 07:18:14;;;;;;;;;;;;;;;;;;4991083;28;20056;-72
2024/02/01 07:21:29;;;;;;;;;;;;;;;;;;4990239;28;19922;-73
2024/02/01 07:23:34;;;;;;;;;;;;;;;;;;4969562;28;19922;-73
2024/02/01 07:26:16;;;;;;;;;;;;;;;;;;4977477;28;19922;-73
2024/02/01 08:02:23;;;;;;;;;;;;;;;;;;4988693;28;19957;-73
2024/02/01 08:07:44;;;;;;;;;;;;;;;;;;4990592;28;20316;-73
2024/02/01 08:10:09;;;;;;;;;;;;;;;;;;4987747;28;19922;-73
2024/02/01 08:12:34;;;;;;;;;;;;;;;;;;4973122;28;19924;-75
2024/02/01 08:15:00;;;;;;;;;;;;;;;;;;4988965;28;19929;-75
2024/02/01 08:17:25;;;;;;;;;;;;;;;;;;4989476;28;19968;-74
2024/02/01 08:19:52;;;;;;;;;;;;;;;;;;4959686;28;20338;-72
2024/02/01 08:22:18;;;;;;;;;;;;;;;;;;4975271;28;20000;-74
2024/02/01 08:24:43;;;;;;;;;;;;;;;;;;4978215;28;19929;-74
2024/02/01 08:27:14;;;;;;;;;;;;;;;;;;4978579;28;19930;-74
2024/02/01 08:29:42;;;;;;;;;;;;;;;;;;4959788;28;19965;-73
2024/02/01 08:34:57;;;;;;;;;;;;;;;;;;4957905;28;20421;-72
2024/02/01 08:37:25;;;;;;;;;;;;;;;;;;4930803;28;20002;-75
2024/02/01 08:43:06;;;;;;;;;;;;;;;;;;4974982;28;19960;-73
2024/02/01 08:45:37;;;;;;;;;;;;;;;;;;4958466;28;20008;-72
2024/02/01 08:48:03;;;;;;;;;;;;;;;;;;4958776;28;19922;-73
2024/02/01 08:50:30;;;;;;;;;;;;;;;;;;4946067;28;19925;-75
2024/02/01 08:52:56;;;;;;;;;;;;;;;;;;4946927;28;19922;-75
2024/02/01 08:55:25;;;;;;;;;;;;;;;;;;4973627;28;19941;-75
2024/02/01 08:57:50;;;;;;;;;;;;;;;;;;4943399;28;20296;-76
2024/02/01 09:00:25;;;;;;;;;;;;;;;;;;4946948;28;22030;-73
2024/02/01 09:03:03;;;;;;;;;;;;;;;;;;4957149;28;20024;-75
2024/02/01 09:05:30;;;;;;;;;;;;;;;;;;4969963;28;19925;-73
2024/02/01 09:08:00;;;;;;;;;;;;;;;;;;4972549;28;20027;-73
2024/02/01 09:10:27;;;;;;;;;;;;;;;;;;4947646;28;20599;-74
2024/02/01 09:12:53;;;;;;;;;;;;;;;;;;4976656;28;20135;-74
2024/02/01 09:15:18;;;;;;;;;;;;;;;;;;4963914;28;20131;-74
2024/02/01 09:17:46;;;;;;;;;;;;;;;;;;4961996;28;20417;-73
2024/02/01 09:20:17;;;;;;;;;;;;;;;;;;4982531;28;19980;-76
2024/02/01 09:22:43;;;;;;;;;;;;;;;;;;4979936;28;19928;-76
2024/02/01 09:25:09;;;;;;;;;;;;;;;;;;4963181;28;20443;-76
2024/02/01 09:27:35;;;;;;;;;;;;;;;;;;4980083;28;20127;-78
2024/02/01 09:30:01;;;;;;;;;;;;;;;;;;4951440;28;19933;-75
2024/02/01 09:32:26;;;;;;;;;;;;;;;;;;4953293;28;19921;-77
2024/02/01 09:34:52;;;;;;;;;;;;;;;;;;4949985;28;19922;-74
2024/02/01 09:37:22;;;;;;;;;;;;;;;;;;4977238;28;19921;-72
2024/02/01 09:39:47;;;;;;;;;;;;;;;;;;4979285;28;20593;-73
2024/02/01 09:42:12;;;;;;;;;;;;;;;;;;4980577;28;19914;-73
2024/02/01 09:44:38;;;;;;;;;;;;;;;;;;4948030;28;19921;-75
2024/02/01 09:47:06;;;;;;;;;;;;;;;;;;4958409;28;20008;-73
2024/02/01 09:49:34;;;;;;;;;;;;;;;;;;4962085;28;19993;-76
2024/02/01 09:52:00;;;;;;;;;;;;;;;;;;4966185;28;20040;-74
2024/02/01 09:54:26;;;;;;;;;;;;;;;;;;4968007;28;19961;-72
2024/02/01 09:56:52;;;;;;;;;;;;;;;;;;4979229;28;19917;-73
2024/02/01 09:59:17;;;;;;;;;;;;;;;;;;4979080;28;20400;-73
2024/02/01 10:01:46;;;;;;;;;;;;;;;;;;4981049;28;20023;-74
2024/02/01 10:04:12;;;;;;;;;;;;;;;;;;4979939;28;19918;-72
2024/02/01 10:06:37;;;;;;;;;;;;;;;;;;4962907;28;20334;-72
2024/02/01 10:09:20;;;;;;;;;;;;;;;;;;4981277;28;20363;-71
2024/02/01 10:11:50;;;;;;;;;;;;;;;;;;4933330;28;19915;-73
2024/02/01 10:14:15;;;;;;;;;;;;;;;;;;4934416;28;20401;-72
2024/02/01 10:16:40;;;;;;;;;;;;;;;;;;4932225;28;19918;-71
2024/02/01 10:19:09;;;;;;;;;;;;;;;;;;4975231;28;19918;-70
2024/02/01 10:21:37;;;;;;;;;;;;;;;;;;4965449;28;20009;-68
2024/02/01 10:24:05;;;;;;;;;;;;;;;;;;4960522;28;20450;-71
2024/02/01 10:26:30;;;;;;;;;;;;;;;;;;4957622;28;19930;-72
2024/02/01 10:28:56;;;;;;;;;;;;;;;;;;4987487;28;19929;-73
2024/02/01 10:31:21;;;;;;;;;;;;;;;;;;4983931;28;19929;-71
2024/02/01 10:33:47;;;;;;;;;;;;;;;;;;4992448;28;20092;-71
2024/02/01 10:36:15;;;;;;;;;;;;;;;;;;4985867;28;19924;-70
2024/02/01 10:38:43;;;;;;;;;;;;;;;;;;4992073;28;19918;-70
2024/02/01 10:41:11;;;;;;;;;;;;;;;;;;4989078;28;20533;-69
2024/02/01 10:43:37;;;;;;;;;;;;;;;;;;4976727;28;19921;-69
2024/02/01 10:46:05;;;;;;;;;;;;;;;;;;4983038;28;20530;-71
2024/02/01 10:48:31;;;;;;;;;;;;;;;;;;4968579;28;20448;-70
2024/02/01 10:50:58;;;;;;;;;;;;;;;;;;4991216;28;20361;-72
2024/02/01 10:53:27;;;;;;;;;;;;;;;;;;4992523;28;19925;-70
2024/02/01 10:55:58;;;;;;;;;;;;;;;;;;4974867;28;19944;-71
2024/02/01 10:58:26;;;;;;;;;;;;;;;;;;5000543;28;19953;-70
2024/02/01 11:00:52;;;;;;;;;;;;;;;;;;4990948;28;20563;-70
2024/02/01 11:03:19;;;;;;;;;;;;;;;;;;4990291;28;20348;-72
2024/02/01 11:05:46;;;;;;;;;;;;;;;;;;5022204;28;19929;-70
2024/02/01 11:08:11;;;;;;;;;;;;;;;;;;4990936;28;19918;-71
2024/02/01 11:10:36;;;;;;;;;;;;;;;;;;4990154;28;19932;-71
2024/02/01 11:13:04;;;;;;;;;;;;;;;;;;4990527;28;19954;-69
2024/02/01 11:15:30;;;;;;;;;;;;;;;;;;4993765;28;19921;-72
2024/02/01 11:18:01;;;;;;;;;;;;;;;;;;4967941;28;20662;-71
2024/02/01 11:20:26;;;;;;;;;;;;;;;;;;5022911;28;20029;-71
2024/02/01 11:22:52;;;;;;;;;;;;;;;;;;4988529;28;19922;-69
2024/02/01 11:25:20;;;;;;;;;;;;;;;;;;4992046;28;19947;-70
2024/02/01 11:27:45;;;;;;;;;;;;;;;;;;4947169;28;20523;-72
2024/02/01 11:30:21;;;;;;;;;;;;;;;;;;4942909;28;19926;-71
2024/02/01 11:32:47;;;;;;;;;;;;;;;;;;4986628;28;20277;-70
2024/02/01 11:35:31;;;;;;;;;;;;;;;;;;4933408;28;19914;-68
2024/02/01 11:38:06;;;;;;;;;;;;;;;;;;4944305;28;19924;-70
2024/02/01 11:40:31;;;;;;;;;;;;;;;;;;4958604;28;19918;-73
2024/02/01 11:42:59;;;;;;;;;;;;;;;;;;4970419;28;19921;-69
2024/02/01 11:45:27;;;;;;;;;;;;;;;;;;4956042;28;20009;-70
2024/02/01 11:47:53;;;;;;;;;;;;;;;;;;4964508;28;19922;-72
2024/02/01 11:50:18;;;;;;;;;;;;;;;;;;4949861;28;20345;-72
2024/02/01 11:52:44;;;;;;;;;;;;;;;;;;4952972;28;20432;-71
2024/02/01 11:55:14;;;;;;;;;;;;;;;;;;4987239;28;19918;-71
2024/02/01 11:57:44;;;;;;;;;;;;;;;;;;4974911;28;19976;-70
2024/02/01 12:00:15;;;;;;;;;;;;;;;;;;4988348;28;20392;-68
2024/02/01 12:02:45;;;;;;;;;;;;;;;;;;4973273;28;19984;-70
2024/02/01 12:05:13;;;;;;;;;;;;;;;;;;4975499;28;19917;-71
2024/02/01 12:07:41;;;;;;;;;;;;;;;;;;4974863;28;21654;-71
2024/02/01 12:10:11;;;;;;;;;;;;;;;;;;4980847;28;20281;-72
2024/02/01 12:12:36;;;;;;;;;;;;;;;;;;4954306;28;20037;-72
2024/02/01 12:15:04;;;;;;;;;;;;;;;;;;4981574;28;20441;-71
2024/02/01 12:17:29;;;;;;;;;;;;;;;;;;4968408;28;19918;-70
2024/02/01 12:19:57;;;;;;;;;;;;;;;;;;4961925;28;19944;-70
2024/02/01 12:22:27;;;;;;;;;;;;;;;;;;4949064;28;20000;-71
2024/02/01 12:24:54;;;;;;;;;;;;;;;;;;4974470;28;19924;-72
2024/02/01 12:27:20;;;;;;;;;;;;;;;;;;4990039;28;20550;-71
2024/02/01 12:29:45;;;;;;;;;;;;;;;;;;4979992;28;20016;-70
2024/02/01 12:32:12;;;;;;;;;;;;;;;;;;4945939;28;20049;-70
2024/02/01 12:34:37;;;;;;;;;;;;;;;;;;4956497;28;19925;-70
2024/02/01 12:37:05;;;;;;;;;;;;;;;;;;4989604;28;19917;-70
2024/02/01 12:39:34;;;;;;;;;;;;;;;;;;4956404;28;19929;-71
2024/02/01 12:42:03;;;;;;;;;;;;;;;;;;4972205;28;20028;-70
2024/02/01 12:44:33;;;;;;;;;;;;;;;;;;4972818;28;19921;-71
2024/02/01 12:46:59;;;;;;;;;;;;;;;;;;4965101;28;19921;-68
2024/02/01 12:49:25;;;;;;;;;;;;;;;;;;4958184;28;19932;-71
2024/02/01 12:51:52;;;;;;;;;;;;;;;;;;4965836;28;19928;-70
2024/02/01 12:54:20;;;;;;;;;;;;;;;;;;4982897;28;19947;-71
2024/02/01 12:56:49;;;;;;;;;;;;;;;;;;4981956;28;19922;-71
2024/02/01 12:59:14;;;;;;;;;;;;;;;;;;4952355;28;19988;-72
2024/02/01 13:01:40;;;;;;;;;;;;;;;;;;4955845;28;21844;-72
2024/02/01 13:04:05;;;;;;;;;;;;;;;;;;4964967;28;19918;-70
2024/02/01 13:06:31;;;;;;;;;;;;;;;;;;4960485;28;20100;-69
2024/02/01 13:08:56;;;;;;;;;;;;;;;;;;4964272;28;20549;-71
2024/02/01 13:11:28;;;;;;;;;;;;;;;;;;4967955;28;20289;-71
2024/02/01 13:13:57;;;;;;;;;;;;;;;;;;4975714;28;19975;-69
2024/02/01 13:16:22;;;;;;;;;;;;;;;;;;4989185;28;19971;-72
2024/02/01 13:18:47;;;;;;;;;;;;;;;;;;4988290;28;19922;-70
2024/02/01 13:21:16;;;;;;;;;;;;;;;;;;4973763;28;19922;-70
2024/02/01 13:23:41;;;;;;;;;;;;;;;;;;4966751;28;20477;-71
2024/02/01 13:26:12;;;;;;;;;;;;;;;;;;4965500;28;20807;-71
2024/02/01 13:31:55;;;;;;;;;;;;;;;;;;4988176;28;20372;-70
2024/02/01 13:34:21;;;;;;;;;;;;;;;;;;4986514;28;19928;-71
2024/02/01 13:36:46;;;;;;;;;;;;;;;;;;4969542;28;19918;-71
2024/02/01 13:39:12;;;;;;;;;;;;;;;;;;4955975;28;20288;-71
2024/02/01 13:41:40;;;;;;;;;;;;;;;;;;4966995;28;20004;-69
2024/02/01 13:44:08;;;;;;;;;;;;;;;;;;4987810;28;20377;-70
2024/02/01 13:46:33;;;;;;;;;;;;;;;;;;4969097;28;19924;-71
2024/02/01 13:49:02;;;;;;;;;;;;;;;;;;4982439;28;20015;-70
2024/02/01 13:51:30;;;;;;;;;;;;;;;;;;4986556;28;20510;-70
2024/02/01 13:53:55;;;;;;;;;;;;;;;;;;4985737;28;20292;-71
2024/02/01 13:56:20;;;;;;;;;;;;;;;;;;4949914;28;20081;-70
2024/02/01 13:58:46;;;;;;;;;;;;;;;;;;4955480;28;19925;-70
2024/02/01 14:01:11;;;;;;;;;;;;;;;;;;4990777;28;19921;-69
2024/02/01 14:03:36;;;;;;;;;;;;;;;;;;4972236;28;19921;-70
2024/02/01 14:06:05;;;;;;;;;;;;;;;;;;4974658;28;20037;-70
2024/02/01 14:08:30;;;;;;;;;;;;;;;;;;4990357;28;20471;-69
2024/02/01 14:10:58;;;;;;;;;;;;;;;;;;4957695;28;19985;-71
2024/02/01 14:13:24;;;;;;;;;;;;;;;;;;4992283;28;20393;-72
2024/02/01 14:15:49;;;;;;;;;;;;;;;;;;4976680;28;20705;-72
2024/02/01 14:18:15;;;;;;;;;;;;;;;;;;4990905;28;19925;-72
2024/02/01 14:20:56;;;;;;;;;;;;;;;;;;4959697;28;19944;-72
2024/02/01 14:23:22;;;;;;;;;;;;;;;;;;4973468;28;19980;-71
2024/02/01 14:25:51;;;;;;;;;;;;;;;;;;4966923;28;20342;-71
2024/02/01 14:28:19;;;;;;;;;;;;;;;;;;4969213;28;19993;-71
2024/02/01 14:30:44;;;;;;;;;;;;;;;;;;4950885;28;20020;-70
2024/02/01 14:33:09;;;;;;;;;;;;;;;;;;4992375;28;19917;-71
2024/02/01 14:35:35;;;;;;;;;;;;;;;;;;4968417;28;21580;-70
2024/02/01 14:38:00;;;;;;;;;;;;;;;;;;4976240;28;19918;-70
2024/02/01 14:40:31;;;;;;;;;;;;;;;;;;4961238;28;20898;-69
2024/02/01 14:42:59;;;;;;;;;;;;;;;;;;4974773;28;20627;-70
2024/02/01 14:48:44;;;;;;;;;;;;;;;;;;4989266;28;20436;-71
2024/02/01 14:51:09;;;;;;;;;;;;;;;;;;4974057;28;20643;-72
2024/02/01 14:53:35;;;;;;;;;;;;;;;;;;4970008;28;20000;-70
2024/02/01 14:56:00;;;;;;;;;;;;;;;;;;4973317;28;19944;-71
2024/02/01 14:58:26;;;;;;;;;;;;;;;;;;4990885;28;19939;-71
2024/02/01 15:00:51;;;;;;;;;;;;;;;;;;4984927;28;19928;-70
2024/02/01 15:03:17;;;;;;;;;;;;;;;;;;4959694;28;19987;-71
2024/02/01 15:09:03;;;;;;;;;;;;;;;;;;4990206;28;20463;-72
2024/02/01 15:11:28;;;;;;;;;;;;;;;;;;4990093;28;20184;-72
2024/02/01 15:13:54;;;;;;;;;;;;;;;;;;4960160;28;19963;-69
2024/02/01 15:16:19;;;;;;;;;;;;;;;;;;4991548;28;20281;-71
2024/02/01 15:21:35;;;;;;;;;;;;;;;;;;4975543;28;19917;-71
2024/02/01 15:24:03;;;;;;;;;;;;;;;;;;4974567;28;20408;-70
2024/02/01 15:26:28;;;;;;;;;;;;;;;;;;4989661;28;20404;-71
2024/02/01 15:28:55;;;;;;;;;;;;;;;;;;4990129;28;20514;-70
2024/02/01 15:31:22;;;;;;;;;;;;;;;;;;4974390;28;20247;-71
2024/02/01 15:33:53;;;;;;;;;;;;;;;;;;4991890;28;20456;-70
2024/02/01 15:36:21;;;;;;;;;;;;;;;;;;4989748;28;19925;-69
2024/02/01 15:42:08;;;;;;;;;;;;;;;;;;4984248;28;20547;-71
2024/02/01 15:44:33;;;;;;;;;;;;;;;;;;4989477;28;19944;-69
2024/02/01 15:47:01;;;;;;;;;;;;;;;;;;4985159;28;19923;-71
2024/02/01 15:49:26;;;;;;;;;;;;;;;;;;4971206;28;19936;-72
2024/02/01 15:51:51;;;;;;;;;;;;;;;;;;4950707;28;19922;-71
2024/02/01 15:54:17;;;;;;;;;;;;;;;;;;4989470;28;19972;-69
2024/02/01 15:56:43;;;;;;;;;;;;;;;;;;4939932;28;19929;-70
2024/02/01 15:59:09;;;;;;;;;;;;;;;;;;4965401;28;19925;-71
2024/02/01 16:01:34;;;;;;;;;;;;;;;;;;4971468;28;19917;-69
2024/02/01 16:04:02;;;;;;;;;;;;;;;;;;4950531;28;19932;-69
2024/02/01 16:06:27;;;;;;;;;;;;;;;;;;4981823;28;19925;-69
2024/02/01 16:08:58;;;;;;;;;;;;;;;;;;4950609;28;20171;-69
2024/02/01 16:11:23;;;;;;;;;;;;;;;;;;4966097;28;20363;-70
2024/02/01 16:13:48;;;;;;;;;;;;;;;;;;4964775;28;19922;-71
2024/02/01 16:16:16;;;;;;;;;;;;;;;;;;4967006;28;19987;-71
2024/02/01 16:18:42;;;;;;;;;;;;;;;;;;4983635;28;20040;-71
2024/02/01 16:21:07;;;;;;;;;;;;;;;;;;4989498;28;19921;-71
2024/02/01 16:23:33;;;;;;;;;;;;;;;;;;4958439;28;19924;-71
2024/02/01 16:26:02;;;;;;;;;;;;;;;;;;4982018;28;19933;-71
2024/02/01 16:28:27;;;;;;;;;;;;;;;;;;4973506;28;19926;-69
2024/02/01 16:30:55;;;;;;;;;;;;;;;;;;4989077;28;19939;-69
2024/02/01 16:33:23;;;;;;;;;;;;;;;;;;4990147;28;19939;-70
2024/02/01 16:35:48;;;;;;;;;;;;;;;;;;4982590;28;20148;-70
2024/02/01 16:38:19;;;;;;;;;;;;;;;;;;4989468;28;20104;-70
2024/02/01 16:40:45;;;;;;;;;;;;;;;;;;4967051;28;19918;-70
2024/02/01 16:43:10;;;;;;;;;;;;;;;;;;4988297;28;19921;-70
2024/02/01 16:45:36;;;;;;;;;;;;;;;;;;4992854;28;19917;-70
2024/02/01 16:48:01;;;;;;;;;;;;;;;;;;4986610;28;19917;-69
2024/02/01 16:50:29;;;;;;;;;;;;;;;;;;4989496;28;20547;-69
2024/02/01 16:52:55;;;;;;;;;;;;;;;;;;4978455;28;20008;-70
2024/02/01 16:58:37;;;;;;;;;;;;;;;;;;4980960;28;19928;-69
2024/02/01 17:01:02;;;;;;;;;;;;;;;;;;4964898;28;19917;-70
2024/02/01 17:03:28;;;;;;;;;;;;;;;;;;4975063;28;19951;-70
2024/02/01 17:05:56;;;;;;;;;;;;;;;;;;4978614;28;20004;-69
2024/02/01 17:08:21;;;;;;;;;;;;;;;;;;4973918;28;20125;-69
2024/02/01 17:10:46;;;;;;;;;;;;;;;;;;4996126;28;19929;-70
2024/02/01 17:13:12;;;;;;;;;;;;;;;;;;4981217;28;19913;-69
2024/02/01 17:15:41;;;;;;;;;;;;;;;;;;4977459;28;20280;-70
2024/02/01 17:18:07;;;;;;;;;;;;;;;;;;4986975;28;19973;-70
2024/02/01 17:20:37;;;;;;;;;;;;;;;;;;4967633;28;20349;-69
2024/02/01 17:23:03;;;;;;;;;;;;;;;;;;4974620;28;19929;-70
2024/02/01 17:25:28;;;;;;;;;;;;;;;;;;4981499;28;19922;-69
2024/02/01 17:27:54;;;;;;;;;;;;;;;;;;4960262;28;20577;-69
2024/02/01 17:30:22;;;;;;;;;;;;;;;;;;4965013;28;19926;-71
2024/02/01 17:32:48;;;;;;;;;;;;;;;;;;4977119;28;20024;-69
2024/02/01 17:35:13;;;;;;;;;;;;;;;;;;4986882;28;19929;-69
2024/02/01 17:37:38;;;;;;;;;;;;;;;;;;4982123;28;20471;-70
2024/02/01 17:40:09;;;;;;;;;;;;;;;;;;4990678;28;19990;-69
2024/02/01 17:42:34;;;;;;;;;;;;;;;;;;4962271;28;19928;-70
2024/02/01 17:45:00;;;;;;;;;;;;;;;;;;4994962;28;20293;-71
2024/02/01 17:47:25;;;;;;;;;;;;;;;;;;4985621;28;19918;-70
2024/02/01 17:49:53;;;;;;;;;;;;;;;;;;4981902;28;19929;-70
2024/02/01 17:52:19;;;;;;;;;;;;;;;;;;4970508;28;19922;-69
2024/02/01 17:54:44;;;;;;;;;;;;;;;;;;4990803;28;19964;-69
2024/02/01 17:57:09;;;;;;;;;;;;;;;;;;4990510;28;19948;-70
2024/02/01 17:59:35;;;;;;;;;;;;;;;;;;4989516;28;20539;-70
2024/02/01 18:02:00;;;;;;;;;;;;;;;;;;4985802;28;19940;-70
2024/02/01 18:04:26;;;;;;;;;;;;;;;;;;4991705;28;19928;-70
2024/02/01 18:09:39;;;;;;;;;;;;;;;;;;4990718;28;19925;-70
2024/02/01 18:12:07;;;;;;;;;;;;;;;;;;4988680;28;19921;-72
2024/02/01 18:14:36;;;;;;;;;;;;;;;;;;4989902;28;20449;-72
2024/02/01 18:17:01;;;;;;;;;;;;;;;;;;4987086;28;19945;-69